sensor_id;sensor_type;location;lat;lon;timestamp;P1;durP1;ratioP1;P2;durP2;ratioP2
58752;SDS011;44525;46.052;13.610;2023-08-01T00:01:01;7.00;;;3.95;;
58752;SDS011;44525;46.052;13.610;2023-08-01T00:03:27;7.65;;;4.13;;
58752;SDS011;44525;46.052;13.610;2023-08-01T00:05:52;7.15;;;4.00;;
58752;SDS011;44525;46.052;13.610;2023-08-01T00:08:19;9.25;;;4.03;;
58752;SDS011;44525;46.052;13.610;2023-08-01T00:10:45;6.35;;;3.90;;
58752;SDS011;44525;46.052;13.610;2023-08-01T00:13:10;7.47;;;3.80;;
58752;SDS011;44525;46.052;13.610;2023-08-01T00:15:36;8.07;;;4.10;;
58752;SDS011;44525;46.052;13.610;2023-08-01T00:18:01;6.80;;;4.07;;
58752;SDS011;44525;46.052;13.610;2023-08-01T00:20:27;8.18;;;3.95;;
58752;SDS011;44525;46.052;13.610;2023-08-01T00:22:52;8.40;;;4.60;;
58752;SDS011;44525;46.052;13.610;2023-08-01T00:25:17;7.53;;;4.03;;
58752;SDS011;44525;46.052;13.610;2023-08-01T00:27:43;7.55;;;4.13;;
58752;SDS011;44525;46.052;13.610;2023-08-01T00:30:09;8.30;;;3.80;;
58752;SDS011;44525;46.052;13.610;2023-08-01T00:32:35;7.10;;;3.70;;
58752;SDS011;44525;46.052;13.610;2023-08-01T00:35:00;7.97;;;4.07;;
58752;SDS011;44525;46.052;13.610;2023-08-01T00:37:26;9.02;;;4.20;;
58752;SDS011;44525;46.052;13.610;2023-08-01T00:39:51;6.63;;;4.07;;
58752;SDS011;44525;46.052;13.610;2023-08-01T00:42:16;9.43;;;4.00;;
58752;SDS011;44525;46.052;13.610;2023-08-01T00:44:42;11.27;;;4.40;;
58752;SDS011;44525;46.052;13.610;2023-08-01T00:47:07;6.93;;;4.13;;
58752;SDS011;44525;46.052;13.610;2023-08-01T00:49:33;7.90;;;4.13;;
58752;SDS011;44525;46.052;13.610;2023-08-01T00:51:59;13.98;;;4.80;;
58752;SDS011;44525;46.052;13.610;2023-08-01T00:54:25;6.78;;;4.53;;
58752;SDS011;44525;46.052;13.610;2023-08-01T00:56:50;6.80;;;4.15;;
58752;SDS011;44525;46.052;13.610;2023-08-01T00:59:16;7.60;;;4.20;;
58752;SDS011;44525;46.052;13.610;2023-08-01T01:01:41;10.60;;;4.07;;
58752;SDS011;44525;46.052;13.610;2023-08-01T01:04:07;9.90;;;4.10;;
58752;SDS011;44525;46.052;13.610;2023-08-01T01:06:51;8.55;;;4.30;;
58752;SDS011;44525;46.052;13.610;2023-08-01T01:09:22;10.52;;;4.30;;
58752;SDS011;44525;46.052;13.610;2023-08-01T01:11:47;7.25;;;4.38;;
58752;SDS011;44525;46.052;13.610;2023-08-01T01:14:12;6.15;;;3.80;;
58752;SDS011;44525;46.052;13.610;2023-08-01T01:16:38;10.43;;;4.45;;
58752;SDS011;44525;46.052;13.610;2023-08-01T01:19:05;6.97;;;3.85;;
58752;SDS011;44525;46.052;13.610;2023-08-01T01:21:33;11.13;;;4.35;;
58752;SDS011;44525;46.052;13.610;2023-08-01T01:24:00;6.15;;;3.97;;
58752;SDS011;44525;46.052;13.610;2023-08-01T01:26:27;10.23;;;4.18;;
58752;SDS011;44525;46.052;13.610;2023-08-01T01:28:53;8.38;;;4.28;;
58752;SDS011;44525;46.052;13.610;2023-08-01T01:31:19;6.82;;;4.18;;
58752;SDS011;44525;46.052;13.610;2023-08-01T01:33:45;7.57;;;4.30;;
58752;SDS011;44525;46.052;13.610;2023-08-01T01:36:11;7.95;;;3.95;;
58752;SDS011;44525;46.052;13.610;2023-08-01T01:38:36;7.30;;;3.67;;
58752;SDS011;44525;46.052;13.610;2023-08-01T01:41:02;8.88;;;4.15;;
58752;SDS011;44525;46.052;13.610;2023-08-01T01:43:27;6.80;;;4.05;;
58752;SDS011;44525;46.052;13.610;2023-08-01T01:45:52;8.38;;;4.43;;
58752;SDS011;44525;46.052;13.610;2023-08-01T01:48:17;8.05;;;3.95;;
58752;SDS011;44525;46.052;13.610;2023-08-01T01:50:43;6.60;;;4.10;;
58752;SDS011;44525;46.052;13.610;2023-08-01T01:53:08;7.00;;;3.83;;
58752;SDS011;44525;46.052;13.610;2023-08-01T01:55:34;9.88;;;4.03;;
58752;SDS011;44525;46.052;13.610;2023-08-01T01:57:59;8.00;;;4.28;;
58752;SDS011;44525;46.052;13.610;2023-08-01T02:00:25;8.40;;;4.03;;
58752;SDS011;44525;46.052;13.610;2023-08-01T02:02:50;8.60;;;3.97;;
58752;SDS011;44525;46.052;13.610;2023-08-01T02:05:15;6.60;;;4.35;;
58752;SDS011;44525;46.052;13.610;2023-08-01T02:07:41;9.07;;;4.20;;
58752;SDS011;44525;46.052;13.610;2023-08-01T02:10:06;9.25;;;4.55;;
58752;SDS011;44525;46.052;13.610;2023-08-01T02:12:32;8.60;;;4.35;;
58752;SDS011;44525;46.052;13.610;2023-08-01T02:14:59;7.50;;;4.03;;
58752;SDS011;44525;46.052;13.610;2023-08-01T02:17:25;7.60;;;4.30;;
58752;SDS011;44525;46.052;13.610;2023-08-01T02:19:50;7.57;;;3.85;;
58752;SDS011;44525;46.052;13.610;2023-08-01T02:22:16;5.90;;;3.80;;
58752;SDS011;44525;46.052;13.610;2023-08-01T02:24:41;8.90;;;4.22;;
58752;SDS011;44525;46.052;13.610;2023-08-01T02:27:07;6.25;;;4.15;;
58752;SDS011;44525;46.052;13.610;2023-08-01T02:29:32;10.38;;;4.70;;
58752;SDS011;44525;46.052;13.610;2023-08-01T02:31:57;8.52;;;4.07;;
58752;SDS011;44525;46.052;13.610;2023-08-01T02:34:23;7.10;;;4.32;;
58752;SDS011;44525;46.052;13.610;2023-08-01T02:36:48;6.70;;;3.83;;
58752;SDS011;44525;46.052;13.610;2023-08-01T02:39:13;10.02;;;3.95;;
58752;SDS011;44525;46.052;13.610;2023-08-01T02:41:39;7.45;;;4.53;;
58752;SDS011;44525;46.052;13.610;2023-08-01T02:44:04;8.25;;;4.13;;
58752;SDS011;44525;46.052;13.610;2023-08-01T02:46:29;7.97;;;4.22;;
58752;SDS011;44525;46.052;13.610;2023-08-01T02:48:56;8.07;;;3.88;;
58752;SDS011;44525;46.052;13.610;2023-08-01T02:51:21;7.50;;;4.28;;
58752;SDS011;44525;46.052;13.610;2023-08-01T02:53:47;5.88;;;4.03;;
58752;SDS011;44525;46.052;13.610;2023-08-01T02:56:12;10.15;;;4.50;;
58752;SDS011;44525;46.052;13.610;2023-08-01T02:58:37;8.60;;;4.20;;
58752;SDS011;44525;46.052;13.610;2023-08-01T03:01:06;7.22;;;4.32;;
58752;SDS011;44525;46.052;13.610;2023-08-01T03:03:34;9.27;;;4.07;;
58752;SDS011;44525;46.052;13.610;2023-08-01T03:06:01;10.45;;;4.53;;
58752;SDS011;44525;46.052;13.610;2023-08-01T03:08:26;11.30;;;4.57;;
58752;SDS011;44525;46.052;13.610;2023-08-01T03:10:53;8.60;;;4.03;;
58752;SDS011;44525;46.052;13.610;2023-08-01T03:13:21;6.40;;;3.90;;
58752;SDS011;44525;46.052;13.610;2023-08-01T03:15:47;8.20;;;4.57;;
58752;SDS011;44525;46.052;13.610;2023-08-01T03:18:12;8.93;;;4.20;;
58752;SDS011;44525;46.052;13.610;2023-08-01T03:20:38;8.15;;;4.03;;
58752;SDS011;44525;46.052;13.610;2023-08-01T03:23:03;6.93;;;4.38;;
58752;SDS011;44525;46.052;13.610;2023-08-01T03:25:29;7.18;;;4.30;;
58752;SDS011;44525;46.052;13.610;2023-08-01T03:27:55;10.32;;;4.50;;
58752;SDS011;44525;46.052;13.610;2023-08-01T03:30:21;9.32;;;4.15;;
58752;SDS011;44525;46.052;13.610;2023-08-01T03:32:47;8.90;;;4.53;;
58752;SDS011;44525;46.052;13.610;2023-08-01T03:35:13;8.80;;;4.72;;
58752;SDS011;44525;46.052;13.610;2023-08-01T03:37:41;7.97;;;4.03;;
58752;SDS011;44525;46.052;13.610;2023-08-01T03:40:07;7.30;;;4.03;;
58752;SDS011;44525;46.052;13.610;2023-08-01T03:42:35;9.57;;;4.43;;
58752;SDS011;44525;46.052;13.610;2023-08-01T03:45:03;7.63;;;4.65;;
58752;SDS011;44525;46.052;13.610;2023-08-01T03:47:30;6.63;;;4.40;;
58752;SDS011;44525;46.052;13.610;2023-08-01T03:49:55;9.30;;;4.22;;
58752;SDS011;44525;46.052;13.610;2023-08-01T03:52:21;8.57;;;4.35;;
58752;SDS011;44525;46.052;13.610;2023-08-01T03:54:46;9.43;;;4.50;;
58752;SDS011;44525;46.052;13.610;2023-08-01T03:57:11;8.07;;;4.07;;
58752;SDS011;44525;46.052;13.610;2023-08-01T03:59:37;6.13;;;4.07;;
58752;SDS011;44525;46.052;13.610;2023-08-01T04:02:02;9.85;;;4.53;;
58752;SDS011;44525;46.052;13.610;2023-08-01T04:04:28;8.18;;;4.80;;
58752;SDS011;44525;46.052;13.610;2023-08-01T04:06:54;9.27;;;4.88;;
58752;SDS011;44525;46.052;13.610;2023-08-01T04:09:20;7.30;;;4.25;;
58752;SDS011;44525;46.052;13.610;2023-08-01T04:11:45;9.48;;;4.60;;
58752;SDS011;44525;46.052;13.610;2023-08-01T04:14:10;8.45;;;4.50;;
58752;SDS011;44525;46.052;13.610;2023-08-01T04:16:36;16.15;;;4.72;;
58752;SDS011;44525;46.052;13.610;2023-08-01T04:19:01;9.60;;;4.47;;
58752;SDS011;44525;46.052;13.610;2023-08-01T04:21:26;7.38;;;4.57;;
58752;SDS011;44525;46.052;13.610;2023-08-01T04:23:52;9.50;;;4.70;;
58752;SDS011;44525;46.052;13.610;2023-08-01T04:26:17;9.95;;;4.72;;
58752;SDS011;44525;46.052;13.610;2023-08-01T04:28:42;8.68;;;4.20;;
58752;SDS011;44525;46.052;13.610;2023-08-01T04:31:08;11.32;;;4.63;;
58752;SDS011;44525;46.052;13.610;2023-08-01T04:33:33;10.73;;;4.75;;
58752;SDS011;44525;46.052;13.610;2023-08-01T04:35:58;7.25;;;4.40;;
58752;SDS011;44525;46.052;13.610;2023-08-01T04:38:24;8.73;;;4.18;;
58752;SDS011;44525;46.052;13.610;2023-08-01T04:40:49;9.90;;;4.57;;
58752;SDS011;44525;46.052;13.610;2023-08-01T04:43:14;9.38;;;4.70;;
58752;SDS011;44525;46.052;13.610;2023-08-01T04:45:40;8.07;;;4.05;;
58752;SDS011;44525;46.052;13.610;2023-08-01T04:48:05;6.40;;;4.20;;
58752;SDS011;44525;46.052;13.610;2023-08-01T04:50:31;6.70;;;4.00;;
58752;SDS011;44525;46.052;13.610;2023-08-01T04:52:56;7.32;;;4.28;;
58752;SDS011;44525;46.052;13.610;2023-08-01T04:55:21;5.88;;;4.13;;
58752;SDS011;44525;46.052;13.610;2023-08-01T04:57:47;8.88;;;4.03;;
58752;SDS011;44525;46.052;13.610;2023-08-01T05:00:12;5.72;;;3.95;;
58752;SDS011;44525;46.052;13.610;2023-08-01T05:02:38;6.22;;;4.40;;
58752;SDS011;44525;46.052;13.610;2023-08-01T05:05:03;6.72;;;4.15;;
58752;SDS011;44525;46.052;13.610;2023-08-01T05:07:29;7.00;;;4.18;;
58752;SDS011;44525;46.052;13.610;2023-08-01T05:09:55;6.18;;;4.35;;
58752;SDS011;44525;46.052;13.610;2023-08-01T05:12:21;7.63;;;4.65;;
58752;SDS011;44525;46.052;13.610;2023-08-01T05:14:46;10.80;;;4.15;;
58752;SDS011;44525;46.052;13.610;2023-08-01T05:17:11;6.72;;;4.38;;
58752;SDS011;44525;46.052;13.610;2023-08-01T05:19:37;8.05;;;4.18;;
58752;SDS011;44525;46.052;13.610;2023-08-01T05:22:02;7.35;;;4.35;;
58752;SDS011;44525;46.052;13.610;2023-08-01T05:24:28;8.55;;;4.53;;
58752;SDS011;44525;46.052;13.610;2023-08-01T05:26:53;7.68;;;4.35;;
58752;SDS011;44525;46.052;13.610;2023-08-01T05:29:18;7.43;;;3.90;;
58752;SDS011;44525;46.052;13.610;2023-08-01T05:31:44;6.47;;;4.03;;
58752;SDS011;44525;46.052;13.610;2023-08-01T05:34:09;7.07;;;4.00;;
58752;SDS011;44525;46.052;13.610;2023-08-01T05:36:34;8.85;;;4.13;;
58752;SDS011;44525;46.052;13.610;2023-08-01T05:39:00;6.60;;;4.32;;
58752;SDS011;44525;46.052;13.610;2023-08-01T05:41:25;7.72;;;4.13;;
58752;SDS011;44525;46.052;13.610;2023-08-01T05:43:51;10.45;;;4.30;;
58752;SDS011;44525;46.052;13.610;2023-08-01T05:46:17;9.20;;;4.13;;
58752;SDS011;44525;46.052;13.610;2023-08-01T05:48:42;7.05;;;3.88;;
58752;SDS011;44525;46.052;13.610;2023-08-01T05:51:07;6.75;;;4.07;;
58752;SDS011;44525;46.052;13.610;2023-08-01T05:53:33;6.47;;;4.40;;
58752;SDS011;44525;46.052;13.610;2023-08-01T05:55:58;7.82;;;4.20;;
58752;SDS011;44525;46.052;13.610;2023-08-01T05:58:23;8.13;;;4.10;;
58752;SDS011;44525;46.052;13.610;2023-08-01T06:00:49;12.20;;;3.90;;
58752;SDS011;44525;46.052;13.610;2023-08-01T06:03:14;5.75;;;3.85;;
58752;SDS011;44525;46.052;13.610;2023-08-01T06:05:40;11.35;;;4.18;;
58752;SDS011;44525;46.052;13.610;2023-08-01T06:08:06;5.53;;;3.60;;
58752;SDS011;44525;46.052;13.610;2023-08-01T06:10:33;8.65;;;3.90;;
58752;SDS011;44525;46.052;13.610;2023-08-01T06:12:58;6.50;;;4.32;;
58752;SDS011;44525;46.052;13.610;2023-08-01T06:15:23;6.43;;;4.18;;
58752;SDS011;44525;46.052;13.610;2023-08-01T06:17:49;6.65;;;3.80;;
58752;SDS011;44525;46.052;13.610;2023-08-01T06:20:14;9.57;;;3.97;;
58752;SDS011;44525;46.052;13.610;2023-08-01T06:22:39;6.03;;;3.67;;
58752;SDS011;44525;46.052;13.610;2023-08-01T06:25:06;7.40;;;4.00;;
58752;SDS011;44525;46.052;13.610;2023-08-01T06:27:31;6.68;;;3.70;;
58752;SDS011;44525;46.052;13.610;2023-08-01T06:29:57;7.18;;;3.92;;
58752;SDS011;44525;46.052;13.610;2023-08-01T06:32:22;11.63;;;4.50;;
58752;SDS011;44525;46.052;13.610;2023-08-01T06:34:47;8.13;;;4.20;;
58752;SDS011;44525;46.052;13.610;2023-08-01T06:37:13;5.68;;;3.67;;
58752;SDS011;44525;46.052;13.610;2023-08-01T06:39:38;7.82;;;3.88;;
58752;SDS011;44525;46.052;13.610;2023-08-01T06:42:03;6.90;;;4.25;;
58752;SDS011;44525;46.052;13.610;2023-08-01T06:44:29;11.43;;;4.07;;
58752;SDS011;44525;46.052;13.610;2023-08-01T06:46:54;10.10;;;4.03;;
58752;SDS011;44525;46.052;13.610;2023-08-01T06:49:20;10.00;;;4.28;;
58752;SDS011;44525;46.052;13.610;2023-08-01T06:51:45;8.85;;;4.32;;
58752;SDS011;44525;46.052;13.610;2023-08-01T06:54:10;17.58;;;4.40;;
58752;SDS011;44525;46.052;13.610;2023-08-01T06:56:36;8.52;;;3.70;;
58752;SDS011;44525;46.052;13.610;2023-08-01T06:59:01;7.47;;;3.78;;
58752;SDS011;44525;46.052;13.610;2023-08-01T07:01:26;8.98;;;4.13;;
58752;SDS011;44525;46.052;13.610;2023-08-01T07:03:52;16.10;;;4.38;;
58752;SDS011;44525;46.052;13.610;2023-08-01T07:06:17;7.72;;;3.75;;
58752;SDS011;44525;46.052;13.610;2023-08-01T07:08:43;12.00;;;4.38;;
58752;SDS011;44525;46.052;13.610;2023-08-01T07:11:09;8.90;;;4.22;;
58752;SDS011;44525;46.052;13.610;2023-08-01T07:13:34;7.30;;;3.80;;
58752;SDS011;44525;46.052;13.610;2023-08-01T07:15:59;9.73;;;3.60;;
58752;SDS011;44525;46.052;13.610;2023-08-01T07:18:25;6.25;;;3.55;;
58752;SDS011;44525;46.052;13.610;2023-08-01T07:21:00;7.78;;;3.65;;
58752;SDS011;44525;46.052;13.610;2023-08-01T07:23:29;9.20;;;3.83;;
58752;SDS011;44525;46.052;13.610;2023-08-01T07:25:55;8.18;;;4.18;;
58752;SDS011;44525;46.052;13.610;2023-08-01T07:28:20;6.00;;;3.70;;
58752;SDS011;44525;46.052;13.610;2023-08-01T07:30:46;5.45;;;3.65;;
58752;SDS011;44525;46.052;13.610;2023-08-01T07:33:11;9.48;;;4.00;;
58752;SDS011;44525;46.052;13.610;2023-08-01T07:35:36;7.60;;;4.13;;
58752;SDS011;44525;46.052;13.610;2023-08-01T07:38:02;7.22;;;3.97;;
58752;SDS011;44525;46.052;13.610;2023-08-01T07:40:27;5.93;;;3.45;;
58752;SDS011;44525;46.052;13.610;2023-08-01T07:42:52;6.88;;;3.58;;
58752;SDS011;44525;46.052;13.610;2023-08-01T07:45:18;7.80;;;3.85;;
58752;SDS011;44525;46.052;13.610;2023-08-01T07:47:44;7.03;;;3.67;;
58752;SDS011;44525;46.052;13.610;2023-08-01T07:50:10;5.25;;;3.60;;
58752;SDS011;44525;46.052;13.610;2023-08-01T07:52:35;6.10;;;4.00;;
58752;SDS011;44525;46.052;13.610;2023-08-01T07:55:01;7.35;;;3.88;;
58752;SDS011;44525;46.052;13.610;2023-08-01T07:57:26;6.78;;;3.65;;
58752;SDS011;44525;46.052;13.610;2023-08-01T07:59:51;8.75;;;3.80;;
58752;SDS011;44525;46.052;13.610;2023-08-01T08:02:17;5.72;;;3.75;;
58752;SDS011;44525;46.052;13.610;2023-08-01T08:04:42;10.07;;;4.10;;
58752;SDS011;44525;46.052;13.610;2023-08-01T08:07:07;6.05;;;3.58;;
58752;SDS011;44525;46.052;13.610;2023-08-01T08:09:33;8.90;;;3.42;;
58752;SDS011;44525;46.052;13.610;2023-08-01T08:11:58;6.88;;;3.67;;
58752;SDS011;44525;46.052;13.610;2023-08-01T08:14:23;5.55;;;3.50;;
58752;SDS011;44525;46.052;13.610;2023-08-01T08:16:49;6.15;;;3.78;;
58752;SDS011;44525;46.052;13.610;2023-08-01T08:19:15;5.40;;;3.55;;
58752;SDS011;44525;46.052;13.610;2023-08-01T08:21:41;6.80;;;3.97;;
58752;SDS011;44525;46.052;13.610;2023-08-01T08:24:06;6.18;;;3.60;;
58752;SDS011;44525;46.052;13.610;2023-08-01T08:26:31;6.78;;;4.18;;
58752;SDS011;44525;46.052;13.610;2023-08-01T08:28:59;8.95;;;3.92;;
58752;SDS011;44525;46.052;13.610;2023-08-01T08:31:24;6.55;;;3.97;;
58752;SDS011;44525;46.052;13.610;2023-08-01T08:33:50;10.40;;;4.80;;
58752;SDS011;44525;46.052;13.610;2023-08-01T08:36:15;8.68;;;4.20;;
58752;SDS011;44525;46.052;13.610;2023-08-01T08:38:41;7.97;;;4.00;;
58752;SDS011;44525;46.052;13.610;2023-08-01T08:43:34;14.10;;;6.40;;
58752;SDS011;44525;46.052;13.610;2023-08-01T08:46:00;9.60;;;5.43;;
58752;SDS011;44525;46.052;13.610;2023-08-01T08:48:26;10.50;;;4.90;;
58752;SDS011;44525;46.052;13.610;2023-08-01T08:50:54;9.55;;;5.30;;
58752;SDS011;44525;46.052;13.610;2023-08-01T08:53:21;10.93;;;5.35;;
58752;SDS011;44525;46.052;13.610;2023-08-01T08:55:47;11.55;;;5.15;;
58752;SDS011;44525;46.052;13.610;2023-08-01T08:58:13;10.73;;;5.47;;
58752;SDS011;44525;46.052;13.610;2023-08-01T09:00:39;9.45;;;5.75;;
58752;SDS011;44525;46.052;13.610;2023-08-01T09:03:05;8.30;;;5.22;;
58752;SDS011;44525;46.052;13.610;2023-08-01T09:05:31;9.80;;;5.00;;
58752;SDS011;44525;46.052;13.610;2023-08-01T09:08:04;11.05;;;5.55;;
58752;SDS011;44525;46.052;13.610;2023-08-01T09:10:32;8.30;;;5.65;;
58752;SDS011;44525;46.052;13.610;2023-08-01T09:12:58;8.60;;;5.60;;
58752;SDS011;44525;46.052;13.610;2023-08-01T09:15:24;10.02;;;5.07;;
58752;SDS011;44525;46.052;13.610;2023-08-01T09:17:54;9.65;;;5.50;;
58752;SDS011;44525;46.052;13.610;2023-08-01T09:20:26;9.73;;;5.50;;
58752;SDS011;44525;46.052;13.610;2023-08-01T09:22:52;10.95;;;5.50;;
58752;SDS011;44525;46.052;13.610;2023-08-01T09:25:18;9.18;;;5.65;;
58752;SDS011;44525;46.052;13.610;2023-08-01T09:27:43;8.43;;;5.07;;
58752;SDS011;44525;46.052;13.610;2023-08-01T09:30:09;11.98;;;5.65;;
58752;SDS011;44525;46.052;13.610;2023-08-01T09:32:50;7.28;;;4.75;;
58752;SDS011;44525;46.052;13.610;2023-08-01T09:35:16;7.15;;;4.82;;
58752;SDS011;44525;46.052;13.610;2023-08-01T09:37:42;8.13;;;5.25;;
58752;SDS011;44525;46.052;13.610;2023-08-01T09:40:08;7.32;;;4.65;;
58752;SDS011;44525;46.052;13.610;2023-08-01T09:42:38;6.40;;;4.50;;
58752;SDS011;44525;46.052;13.610;2023-08-01T09:45:16;7.82;;;4.40;;
58752;SDS011;44525;46.052;13.610;2023-08-01T09:47:43;8.45;;;4.95;;
58752;SDS011;44525;46.052;13.610;2023-08-01T09:50:10;8.43;;;4.40;;
58752;SDS011;44525;46.052;13.610;2023-08-01T09:52:36;9.02;;;4.93;;
58752;SDS011;44525;46.052;13.610;2023-08-01T09:55:02;11.32;;;4.45;;
58752;SDS011;44525;46.052;13.610;2023-08-01T09:57:31;6.63;;;4.13;;
58752;SDS011;44525;46.052;13.610;2023-08-01T09:59:57;6.80;;;4.50;;
58752;SDS011;44525;46.052;13.610;2023-08-01T10:02:24;8.48;;;4.43;;
58752;SDS011;44525;46.052;13.610;2023-08-01T10:04:54;7.80;;;4.47;;
58752;SDS011;44525;46.052;13.610;2023-08-01T10:07:25;7.75;;;4.35;;
58752;SDS011;44525;46.052;13.610;2023-08-01T10:09:57;8.02;;;4.22;;
58752;SDS011;44525;46.052;13.610;2023-08-01T10:12:25;5.38;;;3.78;;
58752;SDS011;44525;46.052;13.610;2023-08-01T10:14:51;8.18;;;4.53;;
58752;SDS011;44525;46.052;13.610;2023-08-01T10:17:17;6.85;;;4.63;;
58752;SDS011;44525;46.052;13.610;2023-08-01T10:19:44;6.10;;;3.80;;
58752;SDS011;44525;46.052;13.610;2023-08-01T10:22:10;6.05;;;4.32;;
58752;SDS011;44525;46.052;13.610;2023-08-01T10:24:36;10.30;;;4.00;;
58752;SDS011;44525;46.052;13.610;2023-08-01T10:27:19;8.68;;;3.70;;
58752;SDS011;44525;46.052;13.610;2023-08-01T10:29:55;6.10;;;3.80;;
58752;SDS011;44525;46.052;13.610;2023-08-01T10:32:27;8.00;;;4.25;;
58752;SDS011;44525;46.052;13.610;2023-08-01T10:37:44;5.53;;;3.85;;
58752;SDS011;44525;46.052;13.610;2023-08-01T10:40:12;6.55;;;3.53;;
58752;SDS011;44525;46.052;13.610;2023-08-01T10:42:41;6.30;;;3.90;;
58752;SDS011;44525;46.052;13.610;2023-08-01T10:45:19;6.28;;;3.92;;
58752;SDS011;44525;46.052;13.610;2023-08-01T10:47:46;7.38;;;3.83;;
58752;SDS011;44525;46.052;13.610;2023-08-01T10:50:15;6.15;;;4.50;;
58752;SDS011;44525;46.052;13.610;2023-08-01T10:52:42;6.03;;;3.85;;
58752;SDS011;44525;46.052;13.610;2023-08-01T10:55:07;6.93;;;3.88;;
58752;SDS011;44525;46.052;13.610;2023-08-01T10:57:37;8.40;;;4.00;;
58752;SDS011;44525;46.052;13.610;2023-08-01T11:00:04;6.95;;;3.42;;
58752;SDS011;44525;46.052;13.610;2023-08-01T11:02:35;5.50;;;3.58;;
58752;SDS011;44525;46.052;13.610;2023-08-01T11:05:04;7.38;;;4.63;;
58752;SDS011;44525;46.052;13.610;2023-08-01T11:07:31;6.43;;;3.97;;
58752;SDS011;44525;46.052;13.610;2023-08-01T11:12:28;6.15;;;3.80;;
58752;SDS011;44525;46.052;13.610;2023-08-01T11:14:58;4.65;;;3.45;;
58752;SDS011;44525;46.052;13.610;2023-08-01T11:17:27;7.40;;;3.70;;
58752;SDS011;44525;46.052;13.610;2023-08-01T11:19:59;5.20;;;3.72;;
58752;SDS011;44525;46.052;13.610;2023-08-01T11:22:29;7.60;;;4.20;;
58752;SDS011;44525;46.052;13.610;2023-08-01T11:24:55;8.48;;;4.00;;
58752;SDS011;44525;46.052;13.610;2023-08-01T11:27:20;7.03;;;4.30;;
58752;SDS011;44525;46.052;13.610;2023-08-01T11:29:45;5.32;;;3.63;;
58752;SDS011;44525;46.052;13.610;2023-08-01T11:32:11;7.07;;;3.78;;
58752;SDS011;44525;46.052;13.610;2023-08-01T11:34:40;6.03;;;4.15;;
58752;SDS011;44525;46.052;13.610;2023-08-01T11:37:09;6.88;;;4.25;;
58752;SDS011;44525;46.052;13.610;2023-08-01T11:39:38;7.88;;;4.38;;
58752;SDS011;44525;46.052;13.610;2023-08-01T11:42:04;5.82;;;3.75;;
58752;SDS011;44525;46.052;13.610;2023-08-01T11:44:30;5.97;;;4.05;;
58752;SDS011;44525;46.052;13.610;2023-08-01T11:46:56;6.10;;;3.83;;
58752;SDS011;44525;46.052;13.610;2023-08-01T11:49:21;6.00;;;3.55;;
58752;SDS011;44525;46.052;13.610;2023-08-01T11:51:47;6.93;;;3.92;;
58752;SDS011;44525;46.052;13.610;2023-08-01T11:54:13;8.27;;;4.07;;
58752;SDS011;44525;46.052;13.610;2023-08-01T11:56:39;5.82;;;4.15;;
58752;SDS011;44525;46.052;13.610;2023-08-01T11:59:13;7.30;;;3.60;;
58752;SDS011;44525;46.052;13.610;2023-08-01T12:01:39;6.73;;;3.70;;
58752;SDS011;44525;46.052;13.610;2023-08-01T12:04:05;10.63;;;3.97;;
58752;SDS011;44525;46.052;13.610;2023-08-01T12:06:31;9.25;;;3.92;;
58752;SDS011;44525;46.052;13.610;2023-08-01T12:09:05;5.95;;;3.50;;
58752;SDS011;44525;46.052;13.610;2023-08-01T12:11:32;6.38;;;3.80;;
58752;SDS011;44525;46.052;13.610;2023-08-01T12:14:04;8.43;;;4.00;;
58752;SDS011;44525;46.052;13.610;2023-08-01T12:16:30;7.20;;;3.95;;
58752;SDS011;44525;46.052;13.610;2023-08-01T12:18:56;9.32;;;3.97;;
58752;SDS011;44525;46.052;13.610;2023-08-01T12:21:22;5.40;;;3.55;;
58752;SDS011;44525;46.052;13.610;2023-08-01T12:23:47;5.60;;;3.80;;
58752;SDS011;44525;46.052;13.610;2023-08-01T12:26:13;5.43;;;3.55;;
58752;SDS011;44525;46.052;13.610;2023-08-01T12:28:38;5.47;;;3.70;;
58752;SDS011;44525;46.052;13.610;2023-08-01T12:31:03;6.60;;;4.10;;
58752;SDS011;44525;46.052;13.610;2023-08-01T12:33:29;7.05;;;3.70;;
58752;SDS011;44525;46.052;13.610;2023-08-01T12:35:54;4.82;;;3.40;;
58752;SDS011;44525;46.052;13.610;2023-08-01T12:38:20;5.90;;;3.80;;
58752;SDS011;44525;46.052;13.610;2023-08-01T12:40:45;6.65;;;3.72;;
58752;SDS011;44525;46.052;13.610;2023-08-01T12:43:12;6.80;;;3.53;;
58752;SDS011;44525;46.052;13.610;2023-08-01T12:45:37;4.78;;;3.40;;
58752;SDS011;44525;46.052;13.610;2023-08-01T12:48:03;5.10;;;3.50;;
58752;SDS011;44525;46.052;13.610;2023-08-01T12:50:28;6.22;;;3.85;;
58752;SDS011;44525;46.052;13.610;2023-08-01T12:52:54;5.30;;;3.67;;
58752;SDS011;44525;46.052;13.610;2023-08-01T12:55:19;6.38;;;4.00;;
58752;SDS011;44525;46.052;13.610;2023-08-01T12:57:44;5.53;;;3.53;;
58752;SDS011;44525;46.052;13.610;2023-08-01T13:00:10;6.15;;;3.97;;
58752;SDS011;44525;46.052;13.610;2023-08-01T13:02:38;7.50;;;4.00;;
58752;SDS011;44525;46.052;13.610;2023-08-01T13:05:04;5.18;;;3.53;;
58752;SDS011;44525;46.052;13.610;2023-08-01T13:07:30;7.70;;;3.65;;
58752;SDS011;44525;46.052;13.610;2023-08-01T13:09:59;5.28;;;3.60;;
58752;SDS011;44525;46.052;13.610;2023-08-01T13:12:25;6.25;;;3.85;;
58752;SDS011;44525;46.052;13.610;2023-08-01T13:14:50;5.13;;;3.50;;
58752;SDS011;44525;46.052;13.610;2023-08-01T13:17:15;9.50;;;3.90;;
58752;SDS011;44525;46.052;13.610;2023-08-01T13:19:41;7.22;;;4.25;;
58752;SDS011;44525;46.052;13.610;2023-08-01T13:22:06;6.20;;;3.90;;
58752;SDS011;44525;46.052;13.610;2023-08-01T13:24:31;6.07;;;3.92;;
58752;SDS011;44525;46.052;13.610;2023-08-01T13:26:57;6.47;;;4.18;;
58752;SDS011;44525;46.052;13.610;2023-08-01T13:29:23;9.75;;;4.22;;
58752;SDS011;44525;46.052;13.610;2023-08-01T13:31:48;6.35;;;3.88;;
58752;SDS011;44525;46.052;13.610;2023-08-01T13:34:13;7.00;;;3.75;;
58752;SDS011;44525;46.052;13.610;2023-08-01T13:36:39;7.18;;;3.70;;
58752;SDS011;44525;46.052;13.610;2023-08-01T13:39:04;7.00;;;4.13;;
58752;SDS011;44525;46.052;13.610;2023-08-01T13:41:29;7.25;;;4.00;;
58752;SDS011;44525;46.052;13.610;2023-08-01T13:43:57;8.00;;;4.07;;
58752;SDS011;44525;46.052;13.610;2023-08-01T13:46:22;6.60;;;4.20;;
58752;SDS011;44525;46.052;13.610;2023-08-01T13:48:47;9.95;;;4.20;;
58752;SDS011;44525;46.052;13.610;2023-08-01T13:51:13;7.15;;;4.10;;
58752;SDS011;44525;46.052;13.610;2023-08-01T13:53:39;12.25;;;5.28;;
58752;SDS011;44525;46.052;13.610;2023-08-01T13:56:10;8.57;;;4.43;;
58752;SDS011;44525;46.052;13.610;2023-08-01T13:58:39;6.68;;;4.50;;
58752;SDS011;44525;46.052;13.610;2023-08-01T14:01:05;7.80;;;4.90;;
58752;SDS011;44525;46.052;13.610;2023-08-01T14:03:35;7.15;;;4.68;;
58752;SDS011;44525;46.052;13.610;2023-08-01T14:06:09;6.93;;;4.22;;
58752;SDS011;44525;46.052;13.610;2023-08-01T14:08:38;8.15;;;4.82;;
58752;SDS011;44525;46.052;13.610;2023-08-01T14:11:05;8.20;;;4.80;;
58752;SDS011;44525;46.052;13.610;2023-08-01T14:13:31;8.40;;;4.68;;
58752;SDS011;44525;46.052;13.610;2023-08-01T14:15:57;5.95;;;4.68;;
58752;SDS011;44525;46.052;13.610;2023-08-01T14:18:23;7.53;;;4.63;;
58752;SDS011;44525;46.052;13.610;2023-08-01T14:20:49;7.07;;;4.90;;
58752;SDS011;44525;46.052;13.610;2023-08-01T14:23:15;7.10;;;4.53;;
58752;SDS011;44525;46.052;13.610;2023-08-01T14:25:40;8.32;;;5.13;;
58752;SDS011;44525;46.052;13.610;2023-08-01T14:28:06;7.25;;;4.80;;
58752;SDS011;44525;46.052;13.610;2023-08-01T14:30:31;7.03;;;5.13;;
58752;SDS011;44525;46.052;13.610;2023-08-01T14:33:00;6.97;;;4.60;;
58752;SDS011;44525;46.052;13.610;2023-08-01T14:35:28;8.43;;;5.20;;